createdAt,value
2019-02-23T00:00:09.435Z,102753.47
2019-02-23T00:02:35.631Z,102755.17
2019-02-23T00:05:01.784Z,102753.05
2019-02-23T00:07:27.977Z,102744.20
2019-02-23T00:09:54.137Z,102742.80
2019-02-23T00:12:20.550Z,102747.56
2019-02-23T00:14:46.695Z,102756.41
2019-02-23T00:17:12.908Z,102754.64
2019-02-23T00:19:39.104Z,102758.13
2019-02-23T00:22:05.294Z,102749.98
2019-02-23T00:24:31.482Z,102749.47
2019-02-23T00:26:57.674Z,102754.63
2019-02-23T00:29:23.825Z,102755.66
2019-02-23T00:31:50.021Z,102753.59
2019-02-23T00:34:16.170Z,102759.60
2019-02-23T00:36:42.312Z,102770.82
2019-02-23T00:39:08.521Z,102776.23
2019-02-23T00:41:34.692Z,102779.07
2019-02-23T00:44:00.847Z,102776.15
2019-02-23T00:46:27.033Z,102780.57
2019-02-23T00:48:53.228Z,102778.34
2019-02-23T00:51:19.428Z,102773.42
2019-02-23T00:53:45.591Z,102775.91
2019-02-23T00:56:11.785Z,102763.09
2019-02-23T00:58:38.010Z,102762.33
2019-02-23T01:01:04.579Z,102760.49
2019-02-23T01:03:30.748Z,102763.77
2019-02-23T01:05:56.942Z,102775.27
2019-02-23T01:08:23.085Z,102773.80
2019-02-23T01:10:57.794Z,102772.15
2019-02-23T01:13:17.390Z,102768.25
2019-02-23T01:15:46.338Z,102772.95
2019-02-23T01:18:12.515Z,102779.83
2019-02-23T01:20:38.860Z,102789.70
2019-02-23T01:23:05.052Z,102786.95
2019-02-23T01:25:31.292Z,102777.86
2019-02-23T01:27:59.547Z,102770.98
2019-02-23T01:30:25.814Z,102763.81
2019-02-23T01:32:51.967Z,102765.23
2019-02-23T01:35:18.194Z,102774.44
2019-02-23T01:37:44.376Z,102780.77
2019-02-23T01:40:10.556Z,102768.17
2019-02-23T01:42:36.743Z,102758.30
2019-02-23T01:45:05.771Z,102759.78
2019-02-23T01:47:31.954Z,102754.12
2019-02-23T01:49:59.166Z,102752.48
2019-02-23T01:52:25.582Z,102746.75
2019-02-23T01:54:51.822Z,102748.72
2019-02-23T01:57:18.052Z,102759.58
2019-02-23T01:59:44.205Z,102754.28
2019-02-23T02:02:10.674Z,102747.05
2019-02-23T02:04:36.925Z,102739.97
2019-02-23T02:07:03.115Z,102727.84
2019-02-23T02:09:29.494Z,102722.81
2019-02-23T02:14:28.452Z,102716.47
2019-02-23T02:16:54.641Z,102711.91
2019-02-23T02:19:20.809Z,102702.64
2019-02-23T02:21:48.935Z,102705.05
2019-02-23T02:24:15.077Z,102693.88
2019-02-23T02:26:41.289Z,102683.80
2019-02-23T02:29:07.503Z,102662.71
2019-02-23T02:31:33.691Z,102652.29
2019-02-23T02:34:06.762Z,102660.86
2019-02-23T02:36:32.945Z,102665.41
2019-02-23T02:38:59.106Z,102669.41
2019-02-23T02:41:25.327Z,102683.52
2019-02-23T02:43:51.838Z,102703.80
2019-02-23T02:46:18.004Z,102705.20
2019-02-23T02:48:44.184Z,102702.06
2019-02-23T02:51:10.373Z,102700.00
2019-02-23T02:53:36.564Z,102701.19
2019-02-23T02:56:02.758Z,102695.12
2019-02-23T02:58:29.006Z,102695.64
2019-02-23T03:00:55.150Z,102687.91
2019-02-23T03:03:21.384Z,102690.95
2019-02-23T03:05:47.540Z,102706.32
2019-02-23T03:08:13.734Z,102703.25
2019-02-23T03:10:39.893Z,102699.52
2019-02-23T03:13:06.073Z,102693.07
2019-02-23T03:15:32.339Z,102702.25
2019-02-23T03:17:58.531Z,102692.48
2019-02-23T03:20:35.996Z,102693.18
2019-02-23T03:22:52.796Z,102693.77
2019-02-23T03:25:18.960Z,102699.17
2019-02-23T03:27:45.570Z,102692.09
2019-02-23T03:30:11.720Z,102691.83
2019-02-23T03:32:37.929Z,102691.25
2019-02-23T03:35:04.206Z,102683.94
2019-02-23T03:37:30.381Z,102676.17
2019-02-23T03:39:56.554Z,102681.95
2019-02-23T03:42:22.789Z,102691.00
2019-02-23T03:44:48.938Z,102684.92
2019-02-23T03:47:15.449Z,102674.56
2019-02-23T03:49:41.668Z,102682.16
2019-02-23T03:52:07.857Z,102686.47
2019-02-23T03:54:34.099Z,102676.88
2019-02-23T03:57:00.450Z,102678.63
2019-02-23T03:59:26.642Z,102676.62
2019-02-23T04:01:52.811Z,102676.38
2019-02-23T04:04:19.017Z,102669.34
2019-02-23T04:06:45.165Z,102664.51
2019-02-23T04:09:11.375Z,102666.95
2019-02-23T04:11:37.553Z,102689.27
2019-02-23T04:14:03.767Z,102685.61
2019-02-23T04:16:29.915Z,102683.59
2019-02-23T04:18:56.119Z,102682.45
2019-02-23T04:21:22.317Z,102678.85
2019-02-23T04:23:48.500Z,102681.44
2019-02-23T04:26:14.724Z,102675.88
2019-02-23T04:28:40.914Z,102677.11
2019-02-23T04:31:07.066Z,102677.33
2019-02-23T04:33:33.270Z,102682.45
2019-02-23T04:35:59.428Z,102688.81
2019-02-23T04:38:25.621Z,102688.61
2019-02-23T04:40:51.810Z,102685.47
2019-02-23T04:43:18.043Z,102686.03
2019-02-23T04:45:44.568Z,102678.00
2019-02-23T04:48:11.213Z,102667.20
2019-02-23T04:50:37.363Z,102651.02
2019-02-23T04:53:03.592Z,102637.86
2019-02-23T04:55:30.083Z,102630.60
2019-02-23T04:57:56.366Z,102635.31
2019-02-23T05:00:22.688Z,102634.55
2019-02-23T05:02:48.873Z,102634.66
2019-02-23T05:05:15.031Z,102630.77
2019-02-23T05:07:41.257Z,102615.34
2019-02-23T05:10:07.918Z,102613.48
2019-02-23T05:12:34.099Z,102613.56
2019-02-23T05:15:00.350Z,102616.19
2019-02-23T05:17:26.573Z,102617.72
2019-02-23T05:19:52.756Z,102620.58
2019-02-23T05:22:18.991Z,102619.55
2019-02-23T05:24:45.186Z,102625.28
2019-02-23T05:27:11.353Z,102638.30
2019-02-23T05:29:37.562Z,102638.45
2019-02-23T05:32:03.734Z,102641.13
2019-02-23T05:34:29.946Z,102643.80
2019-02-23T05:36:56.117Z,102648.28
2019-02-23T05:39:22.303Z,102657.77
2019-02-23T05:41:48.480Z,102672.61
2019-02-23T05:44:14.704Z,102672.34
2019-02-23T05:46:40.880Z,102675.06
2019-02-23T05:49:07.329Z,102664.90
2019-02-23T05:51:38.800Z,102666.81
2019-02-23T05:54:01.890Z,102671.13
2019-02-23T05:56:28.054Z,102669.13
2019-02-23T05:58:54.254Z,102665.42
2019-02-23T06:01:20.439Z,102683.19
2019-02-23T06:03:46.956Z,102696.19
2019-02-23T06:06:13.114Z,102691.20
2019-02-23T06:08:39.320Z,102689.26
2019-02-23T06:11:05.497Z,102684.72
2019-02-23T06:13:31.969Z,102684.30
2019-02-23T06:15:58.131Z,102685.94
2019-02-23T06:18:24.273Z,102680.91
2019-02-23T06:20:50.492Z,102681.89
2019-02-23T06:23:16.750Z,102686.67
2019-02-23T06:25:43.018Z,102688.69
2019-02-23T06:28:09.376Z,102699.73
2019-02-23T06:30:35.568Z,102706.39
2019-02-23T06:33:01.725Z,102712.02
2019-02-23T06:35:27.954Z,102718.92
2019-02-23T06:37:54.121Z,102721.53
2019-02-23T06:40:20.482Z,102722.51
2019-02-23T06:42:46.660Z,102724.80
2019-02-23T06:45:12.889Z,102735.25
2019-02-23T06:47:39.381Z,102737.27
2019-02-23T06:50:06.376Z,102733.25
2019-02-23T06:52:32.556Z,102725.00
2019-02-23T06:54:58.792Z,102732.28
2019-02-23T06:57:24.942Z,102740.08
2019-02-23T06:59:51.184Z,102741.16
2019-02-23T07:02:17.358Z,102755.93
2019-02-23T07:04:43.544Z,102753.91
2019-02-23T07:07:09.722Z,102768.05
2019-02-23T07:09:35.912Z,102783.09
2019-02-23T07:12:02.098Z,102785.25
2019-02-23T07:14:28.305Z,102799.46
2019-02-23T07:16:54.803Z,102804.99
2019-02-23T07:19:21.010Z,102804.20
2019-02-23T07:21:47.211Z,102804.06
2019-02-23T07:24:13.441Z,102808.79
2019-02-23T07:26:39.607Z,102812.63
2019-02-23T07:29:05.832Z,102817.42
2019-02-23T07:31:32.008Z,102831.61
2019-02-23T07:33:58.278Z,102828.75
2019-02-23T07:36:24.518Z,102829.80
2019-02-23T07:38:50.690Z,102842.33
2019-02-23T07:41:16.906Z,102845.34
2019-02-23T07:43:43.069Z,102850.16
2019-02-23T07:46:09.267Z,102848.17
2019-02-23T07:48:35.757Z,102828.47
2019-02-23T07:51:04.104Z,102812.48
2019-02-23T07:53:30.252Z,102817.91
2019-02-23T07:55:56.440Z,102817.94
2019-02-23T07:58:22.620Z,102822.22
2019-02-23T08:00:48.814Z,102829.11
2019-02-23T08:03:14.978Z,102828.45
2019-02-23T08:05:41.163Z,102829.04
2019-02-23T08:08:07.323Z,102825.67
2019-02-23T08:10:33.770Z,102834.88
2019-02-23T08:12:59.936Z,102817.83
2019-02-23T08:15:26.129Z,102824.31
2019-02-23T08:17:52.278Z,102829.70
2019-02-23T08:20:18.471Z,102823.02
2019-02-23T08:22:44.627Z,102831.57
2019-02-23T08:25:13.071Z,102829.16
2019-02-23T08:27:39.223Z,102829.78
2019-02-23T08:30:15.365Z,102822.20
2019-02-23T08:32:41.529Z,102833.13
2019-02-23T08:35:07.816Z,102837.14
2019-02-23T08:37:34.006Z,102847.03
2019-02-23T08:40:00.234Z,102856.76
2019-02-23T08:42:26.432Z,102856.50
2019-02-23T08:44:52.629Z,102869.05
2019-02-23T08:47:18.824Z,102868.79
2019-02-23T08:49:44.980Z,102872.23
2019-02-23T08:52:11.572Z,102859.20
2019-02-23T08:54:37.781Z,102845.52
2019-02-23T08:57:03.969Z,102839.28
2019-02-23T08:59:30.154Z,102826.95
2019-02-23T09:01:56.349Z,102820.59
2019-02-23T09:04:22.520Z,102804.45
2019-02-23T09:06:48.746Z,102794.30
2019-02-23T09:09:14.895Z,102784.71
2019-02-23T09:11:41.089Z,102774.93
2019-02-23T09:14:07.246Z,102769.25
2019-02-23T09:16:33.457Z,102771.77
2019-02-23T09:18:59.659Z,102769.86
2019-02-23T09:21:25.931Z,102771.51
2019-02-23T09:23:52.110Z,102771.98
2019-02-23T09:26:18.309Z,102780.77
2019-02-23T09:28:44.466Z,102792.20
2019-02-23T09:31:10.674Z,102788.45
2019-02-23T09:33:36.819Z,102790.97
2019-02-23T09:36:03.008Z,102787.20
2019-02-23T09:38:29.162Z,102784.28
2019-02-23T09:40:55.355Z,102780.91
2019-02-23T09:43:21.559Z,102778.74
2019-02-23T09:45:47.729Z,102780.85
2019-02-23T09:48:13.887Z,102773.98
2019-02-23T09:50:40.113Z,102774.10
2019-02-23T09:53:11.088Z,102769.22
2019-02-23T09:55:34.386Z,102762.05
2019-02-23T09:58:00.863Z,102759.94
2019-02-23T10:00:27.233Z,102747.79
2019-02-23T10:02:53.431Z,102743.92
2019-02-23T10:05:19.588Z,102743.25
2019-02-23T10:07:46.105Z,102740.95
2019-02-23T10:10:12.360Z,102739.73
2019-02-23T10:12:38.576Z,102733.84
2019-02-23T10:15:10.228Z,102727.33
2019-02-23T10:17:36.452Z,102726.98
2019-02-23T10:20:07.188Z,102722.77
2019-02-23T10:22:33.743Z,102721.48
2019-02-23T10:24:59.923Z,102711.52
2019-02-23T10:27:26.130Z,102703.25
2019-02-23T10:29:52.272Z,102699.23
2019-02-23T10:32:18.527Z,102700.94
2019-02-23T10:34:45.056Z,102686.70
2019-02-23T10:37:11.947Z,102680.42
2019-02-23T10:39:38.132Z,102676.63
2019-02-23T10:42:04.298Z,102679.77
2019-02-23T10:44:30.461Z,102680.38
2019-02-23T10:46:56.667Z,102676.70
2019-02-23T10:49:22.830Z,102671.45
2019-02-23T10:51:49.025Z,102677.29
2019-02-23T10:54:15.194Z,102677.44
2019-02-23T10:56:41.408Z,102675.31
2019-02-23T10:59:07.663Z,102658.48
2019-02-23T11:01:33.867Z,102649.84
2019-02-23T11:04:00.029Z,102649.30
2019-02-23T11:06:26.261Z,102647.20
2019-02-23T11:08:52.731Z,102648.08
2019-02-23T11:11:18.882Z,102645.51
2019-02-23T11:13:45.096Z,102645.86
2019-02-23T11:16:11.591Z,102650.44
2019-02-23T11:18:37.894Z,102643.79
2019-02-23T11:21:04.173Z,102638.79
2019-02-23T11:23:30.478Z,102633.56
2019-02-23T11:25:56.627Z,102633.20
2019-02-23T11:28:22.829Z,102627.42
2019-02-23T11:30:48.991Z,102625.20
2019-02-23T11:33:15.251Z,102619.52
2019-02-23T11:35:41.870Z,102619.46
2019-02-23T11:38:08.055Z,102621.30
2019-02-23T11:40:34.484Z,102614.62
2019-02-23T11:43:00.695Z,102609.91
2019-02-23T11:45:26.868Z,102609.72
2019-02-23T11:47:53.062Z,102611.28
2019-02-23T11:50:19.236Z,102606.63
2019-02-23T11:52:45.456Z,102607.75
2019-02-23T11:55:11.632Z,102605.22
2019-02-23T11:57:38.111Z,102597.50
2019-02-23T12:00:13.517Z,102592.50
2019-02-23T12:02:39.755Z,102585.71
2019-02-23T12:05:08.239Z,102584.99
2019-02-23T12:07:34.838Z,102577.08
2019-02-23T12:10:01.283Z,102582.98
2019-02-23T12:12:27.488Z,102579.89
2019-02-23T12:14:53.685Z,102576.41
2019-02-23T12:17:19.943Z,102576.16
2019-02-23T12:19:46.115Z,102575.08
2019-02-23T12:22:12.807Z,102568.87
2019-02-23T12:24:39.113Z,102562.86
2019-02-23T12:27:05.336Z,102557.39
2019-02-23T12:29:31.536Z,102549.55
2019-02-23T12:31:57.699Z,102543.06
2019-02-23T12:34:23.904Z,102539.92
2019-02-23T12:36:50.104Z,102540.33
2019-02-23T12:39:18.912Z,102543.69
2019-02-23T12:41:45.107Z,102537.77
2019-02-23T12:44:11.807Z,102536.95
2019-02-23T12:46:38.178Z,102543.55
2019-02-23T12:49:04.333Z,102552.52
2019-02-23T12:51:30.540Z,102551.63
2019-02-23T12:53:56.715Z,102566.01
2019-02-23T12:56:22.873Z,102563.64
2019-02-23T12:58:49.201Z,102560.80
2019-02-23T13:01:15.409Z,102556.37
2019-02-23T13:03:41.600Z,102556.06
2019-02-23T13:06:08.051Z,102558.39
2019-02-23T13:09:13.962Z,102547.94
2019-02-23T13:11:51.344Z,102548.28
2019-02-23T13:14:41.834Z,102552.56
2019-02-23T13:17:42.147Z,102553.34
2019-02-23T13:20:56.973Z,102563.27
2019-02-23T13:24:03.476Z,102570.05
2019-02-23T13:27:05.460Z,102568.50
2019-02-23T13:29:40.094Z,102569.20
2019-02-23T13:32:24.376Z,102564.97
2019-02-23T13:35:16.657Z,102562.70
2019-02-23T13:37:53.808Z,102568.30
2019-02-23T13:40:34.787Z,102570.59
2019-02-23T13:43:15.518Z,102566.41
2019-02-23T13:46:11.385Z,102578.03
2019-02-23T13:49:04.160Z,102578.66
2019-02-23T13:51:44.595Z,102561.56
2019-02-23T13:54:38.396Z,102563.00
2019-02-23T13:57:10.240Z,102561.47
2019-02-23T14:00:01.392Z,102557.30
2019-02-23T14:02:57.869Z,102569.33
2019-02-23T14:05:56.901Z,102563.92
2019-02-23T14:09:10.179Z,102555.48
2019-02-23T14:12:06.428Z,102546.81
2019-02-23T14:14:49.906Z,102536.78
2019-02-23T14:17:27.715Z,102531.16
2019-02-23T14:20:25.705Z,102520.15
2019-02-23T14:23:03.076Z,102508.06
2019-02-23T14:25:53.369Z,102505.13
2019-02-23T14:28:42.677Z,102496.67
2019-02-23T14:31:36.904Z,102494.09
2019-02-23T14:34:26.466Z,102485.42
2019-02-23T14:37:13.514Z,102485.97
2019-02-23T14:40:18.365Z,102486.02
2019-02-23T14:43:08.540Z,102491.70
2019-02-23T14:45:58.478Z,102487.94
2019-02-23T14:49:02.250Z,102483.21
2019-02-23T14:51:55.097Z,102492.67
2019-02-23T14:54:35.579Z,102485.79
2019-02-23T14:57:46.945Z,102489.36
2019-02-23T15:00:33.601Z,102491.35
2019-02-23T15:03:22.743Z,102489.42
2019-02-23T15:06:03.195Z,102480.87
2019-02-23T15:08:44.411Z,102477.37
2019-02-23T15:11:22.511Z,102471.12
2019-02-23T15:14:21.276Z,102474.61
2019-02-23T15:17:20.477Z,102471.63
2019-02-23T15:20:20.611Z,102464.73
2019-02-23T15:23:01.032Z,102450.52
2019-02-23T15:25:52.737Z,102445.78
2019-02-23T15:28:57.503Z,102448.06
2019-02-23T15:32:16.596Z,102454.39
2019-02-23T15:35:23.517Z,102466.27
2019-02-23T15:38:45.077Z,102472.37
2019-02-23T15:41:17.047Z,102480.83
2019-02-23T15:44:12.241Z,102478.05
2019-02-23T15:46:59.126Z,102471.80
2019-02-23T15:49:30.862Z,102460.78
2019-02-23T15:51:58.698Z,102454.05
2019-02-23T15:54:24.862Z,102464.94
2019-02-23T15:56:51.011Z,102455.14
2019-02-23T15:59:17.181Z,102460.27
2019-02-23T16:01:43.373Z,102466.97
2019-02-23T16:04:09.525Z,102470.88
2019-02-23T16:06:35.732Z,102467.80
2019-02-23T16:09:03.207Z,102458.91
2019-02-23T16:11:29.569Z,102459.81
2019-02-23T16:13:55.737Z,102468.52
2019-02-23T16:16:21.928Z,102464.00
2019-02-23T16:18:48.112Z,102457.77
2019-02-23T16:21:14.285Z,102458.24
2019-02-23T16:23:40.446Z,102458.48
2019-02-23T16:26:06.968Z,102466.38
2019-02-23T16:28:33.142Z,102465.45
2019-02-23T16:30:59.301Z,102471.89
2019-02-23T16:33:25.527Z,102478.23
2019-02-23T16:35:51.689Z,102478.05
2019-02-23T16:38:17.881Z,102478.34
2019-02-23T16:40:44.047Z,102478.22
2019-02-23T16:43:10.231Z,102472.91
2019-02-23T16:45:36.730Z,102476.55
2019-02-23T16:48:02.994Z,102479.08
2019-02-23T16:50:29.421Z,102480.61
2019-02-23T16:52:55.617Z,102477.70
2019-02-23T16:55:21.798Z,102476.34
2019-02-23T16:57:47.993Z,102480.25
2019-02-23T17:00:14.167Z,102479.70
2019-02-23T17:02:40.383Z,102479.77
2019-02-23T17:05:06.739Z,102478.39
2019-02-23T17:07:32.920Z,102484.96
2019-02-23T17:09:59.089Z,102484.08
2019-02-23T17:12:25.299Z,102480.08
2019-02-23T17:14:51.450Z,102481.03
2019-02-23T17:17:17.634Z,102477.56
2019-02-23T17:19:43.784Z,102478.25
2019-02-23T17:22:10.014Z,102485.61
2019-02-23T17:24:36.298Z,102479.00
2019-02-23T17:27:02.504Z,102481.74
2019-02-23T17:29:28.671Z,102480.58
2019-02-23T17:31:54.856Z,102487.05
2019-02-23T17:34:21.443Z,102484.40
2019-02-23T17:36:47.661Z,102479.66
2019-02-23T17:39:13.891Z,102473.45
2019-02-23T17:41:40.060Z,102467.83
2019-02-23T17:44:06.248Z,102462.82
2019-02-23T17:46:32.435Z,102464.98
2019-02-23T17:48:58.638Z,102461.84
2019-02-23T17:51:24.824Z,102457.84
2019-02-23T17:53:51.431Z,102450.45
2019-02-23T17:56:17.623Z,102453.14
2019-02-23T17:58:43.795Z,102454.23
2019-02-23T18:01:09.982Z,102464.22
2019-02-23T18:03:36.173Z,102461.91
2019-02-23T18:06:02.327Z,102463.66
2019-02-23T18:08:28.835Z,102462.81
2019-02-23T18:10:54.989Z,102463.58
2019-02-23T18:13:21.195Z,102460.37
2019-02-23T18:15:47.502Z,102460.97
2019-02-23T18:18:13.714Z,102454.41
2019-02-23T18:20:39.904Z,102456.52
2019-02-23T18:23:06.062Z,102463.92
2019-02-23T18:25:32.572Z,102460.08
2019-02-23T18:27:58.789Z,102467.88
2019-02-23T18:30:24.985Z,102466.63
2019-02-23T18:32:52.319Z,102475.60
2019-02-23T18:35:18.568Z,102470.98
2019-02-23T18:37:44.819Z,102470.09
2019-02-23T18:40:11.013Z,102471.11
2019-02-23T18:42:37.184Z,102472.97
2019-02-23T18:45:06.735Z,102479.78
2019-02-23T18:47:33.268Z,102476.76
2019-02-23T18:49:59.462Z,102476.98
2019-02-23T18:52:25.651Z,102463.52
2019-02-23T18:54:51.893Z,102461.19
2019-02-23T18:57:18.087Z,102464.49
2019-02-23T18:59:44.230Z,102463.30
2019-02-23T19:02:10.707Z,102460.91
2019-02-23T19:04:36.895Z,102455.47
2019-02-23T19:07:03.068Z,102456.83
2019-02-23T19:09:29.242Z,102449.20
2019-02-23T19:11:55.388Z,102453.41
2019-02-23T19:14:22.814Z,102454.77
2019-02-23T19:16:49.061Z,102452.56
2019-02-23T19:19:15.271Z,102447.92
2019-02-23T19:21:41.453Z,102445.97
2019-02-23T19:24:07.656Z,102442.30
2019-02-23T19:26:38.224Z,102440.22
2019-02-23T19:29:01.925Z,102439.72
2019-02-23T19:31:28.447Z,102433.39
2019-02-23T19:33:56.613Z,102432.69
2019-02-23T19:36:22.737Z,102434.78
2019-02-23T19:38:48.947Z,102434.31
2019-02-23T19:41:16.597Z,102437.66
2019-02-23T19:43:42.800Z,102436.83
2019-02-23T19:46:08.972Z,102431.88
2019-02-23T19:48:35.157Z,102434.76
2019-02-23T19:51:05.637Z,102429.47
2019-02-23T19:53:31.864Z,102430.34
2019-02-23T19:55:58.648Z,102421.62
2019-02-23T19:58:24.832Z,102425.15
2019-02-23T20:00:51.303Z,102426.58
2019-02-23T20:03:17.851Z,102433.50
2019-02-23T20:05:44.659Z,102431.86
2019-02-23T20:08:11.357Z,102429.71
2019-02-23T20:10:37.542Z,102428.11
2019-02-23T20:13:03.784Z,102432.33
2019-02-23T20:15:30.066Z,102440.36
2019-02-23T20:17:56.490Z,102438.73
2019-02-23T20:20:22.680Z,102440.70
2019-02-23T20:22:48.850Z,102440.77
2019-02-23T20:25:15.391Z,102437.89
2019-02-23T20:27:41.557Z,102436.27
2019-02-23T20:30:10.241Z,102441.35
2019-02-23T20:32:36.750Z,102439.06
2019-02-23T20:35:04.845Z,102443.53
2019-02-23T20:37:31.004Z,102436.53
2019-02-23T20:39:57.201Z,102436.06
2019-02-23T20:42:23.429Z,102434.18
2019-02-23T20:44:49.944Z,102431.48
2019-02-23T20:47:17.363Z,102430.52
2019-02-23T20:49:43.821Z,102429.80
2019-02-23T20:52:09.976Z,102424.23
2019-02-23T20:54:36.200Z,102417.23
2019-02-23T20:57:05.299Z,102413.59
2019-02-23T20:59:30.491Z,102412.28
2019-02-23T21:01:56.650Z,102414.70
2019-02-23T21:04:22.945Z,102415.41
2019-02-23T21:06:49.110Z,102416.25
2019-02-23T21:09:15.426Z,102410.08
2019-02-23T21:11:41.944Z,102405.68
2019-02-23T21:14:08.149Z,102407.09
2019-02-23T21:16:34.621Z,102402.69
2019-02-23T21:19:01.113Z,102403.95
2019-02-23T21:21:27.585Z,102399.71
2019-02-23T21:23:53.796Z,102394.36
2019-02-23T21:26:19.950Z,102393.13
2019-02-23T21:28:46.153Z,102392.90
2019-02-23T21:31:12.310Z,102396.59
2019-02-23T21:33:38.488Z,102395.38
2019-02-23T21:36:04.746Z,102395.67
2019-02-23T21:38:30.886Z,102399.86
2019-02-23T21:40:57.112Z,102402.09
2019-02-23T21:43:24.123Z,102403.24
2019-02-23T21:45:50.339Z,102400.31
2019-02-23T21:48:16.481Z,102400.45
2019-02-23T21:50:42.697Z,102398.16
2019-02-23T21:53:08.855Z,102388.73
2019-02-23T21:55:35.073Z,102387.45
2019-02-23T21:58:01.229Z,102386.27
2019-02-23T22:00:27.457Z,102379.09
2019-02-23T22:02:53.585Z,102383.83
2019-02-23T22:05:19.813Z,102381.72
2019-02-23T22:07:46.009Z,102384.27
2019-02-23T22:10:12.217Z,102382.72
2019-02-23T22:12:38.398Z,102388.56
2019-02-23T22:15:06.401Z,102385.84
2019-02-23T22:17:32.645Z,102393.97
2019-02-23T22:19:58.863Z,102389.41
2019-02-23T22:22:25.001Z,102387.00
2019-02-23T22:24:51.233Z,102391.41
2019-02-23T22:27:17.372Z,102390.23
2019-02-23T22:29:43.581Z,102392.34
2019-02-23T22:32:09.722Z,102391.27
2019-02-23T22:34:36.242Z,102398.48
2019-02-23T22:37:02.397Z,102392.95
2019-02-23T22:39:28.594Z,102392.95
2019-02-23T22:41:54.796Z,102394.40
2019-02-23T22:44:20.974Z,102399.90
2019-02-23T22:46:47.176Z,102400.71
2019-02-23T22:49:13.624Z,102403.28
2019-02-23T22:51:39.790Z,102398.04
2019-02-23T22:54:05.960Z,102401.34
2019-02-23T22:56:32.552Z,102399.53
2019-02-23T22:58:58.730Z,102395.87
2019-02-23T23:01:25.016Z,102388.23
2019-02-23T23:03:51.200Z,102391.72
2019-02-23T23:06:17.491Z,102391.28
2019-02-23T23:08:43.665Z,102386.28
2019-02-23T23:11:09.868Z,102383.00
2019-02-23T23:13:36.042Z,102381.02
2019-02-23T23:16:02.269Z,102382.84
2019-02-23T23:18:28.454Z,102382.28
2019-02-23T23:20:55.013Z,102378.86
2019-02-23T23:23:21.185Z,102384.40
2019-02-23T23:25:47.364Z,102379.66
2019-02-23T23:28:13.548Z,102382.31
2019-02-23T23:30:39.764Z,102387.34
2019-02-23T23:33:06.288Z,102388.95
2019-02-23T23:35:32.485Z,102390.13
2019-02-23T23:37:58.639Z,102392.39
2019-02-23T23:40:24.816Z,102387.78
2019-02-23T23:42:57.966Z,102387.49
2019-02-23T23:45:19.092Z,102388.48
2019-02-23T23:47:45.293Z,102382.67
2019-02-23T23:50:11.477Z,102376.19
2019-02-23T23:52:37.670Z,102378.38
2019-02-23T23:55:04.750Z,102373.20
2019-02-23T23:57:30.948Z,102374.17
2019-02-23T23:59:57.121Z,102377.06
